21st November 2012 - heavy rain overnight

If you wish to post your complete observations, with or without comments, please use this forum.

21st November 2012 - heavy rain overnight

Postby Andy Page » 2012 Nov 21, 09:38

Romansleigh - 21/0900 Z Nov 12: WNW F3 15KM -RA 5ST006 7SC030 5.7/5.4 1004 RERA
Rmks:- 0900-0900: max 12.9, min 5.5, grass min 4.7, rain 36.5 mm (includes 30.7 mm since 2100).
Andy Page
Romansleigh (195 m AMSL)
COL station 87028
Andy Page
 
Posts: 21
Joined: 2012 Jan 27, 20:09

Re: 21st November 2012 - heavy rain overnight

Postby Richard Hunt » 2012 Nov 21, 19:26

Moderate rain most of the day, total stands ot 20.5mm since 0000Z.

HSEA 210630Z VRB02KT 6000 RA OVC001 09/09 Q1007 BECMG +RA

HSEA 211715Z 18010KT 9999 NSW BKN001 07/07 Q1006 RE-RA NOSIG

HSEA 211830Z 25010KT 9999 NSW BKN001 06/06 Q1008 NOSIG
COL Station: 25020.

Watson W-8681 AWS. Standard Stevenson Screen. Maximum and Minimum screen thermometers. Grass minimum thermometer.
5" Copper standard rain gauge. Roof mounted annemometer.
Richard Hunt
 
Posts: 374
Joined: 2012 Jan 27, 19:23
Location: Hornsea, East Yorkshire. 10m AMSL


Return to Current Conditions



Who is online

Users browsing this forum: No registered users and 1 guest

cron